Portada
METAR-TAF:

METAR-TAF

Aeropuertos :

Aeropuerto de Madrid-Cuatro Vientos

Madrid-Cuatro Vientos, España

latitud: 40-23N, longitud: 003-47W, altitud: 690 m

Observación

El informe se hizo hace 39 minutos, a las 13:00 UTC
Viento 3 kt del oeste-suroeste
Temperatura 20°C
Humedad 37%
Presión 1015 hPa
Visibilidad 10 km o más
Escasas nubes a una altura de 5500 ft

METAR: LEVS 261300Z 24003KT 9999 FEW055 20/05 Q1015

Hora: 15:39 (13:39 UTC)

Pronóstico

El informe se hizo hace 2 horas y 39 minutos, a las 11:00 UTC
Pronóstico válido del 26 a las 12 UTC al 27 a las 12 UTC
Viento 5 kt con dirección variable
Visibilidad 10 km o más
Escasas nubes a una altura de 4500 ft
Evolucionando progresivamente
del 27 a las 11 UTC al 27 a las 12 UTC
Viento 11 kt del noroeste

TAF: LEVS 261100Z 2612/2712 VRB05KT 9999 FEW045 TX24/2615Z TN09/2706Z BECMG 2711/2712 31011KT

Observaciones y pronósticos meteorológicos de más de 4000 aeropuertos (mensajes METAR y TAF).

Los puntos amarillos y rojos representan las estaciones disponibles.

Ponga el ratón en el punto deseado para ver el nombre de la estación.

Haga clic para ver las observaciones y los pronósticos meteorológicos.

Para cambiar el mapa : haga clic en los botones verdes con una cruz de color negro para hacer un zoom, en el botón verde con un guión para alejar o en las flechas verdes para mapas adyacentes.


METAR-TAF: